Weather History for KAJG - October, 2012

Change the Weather History Date:

Tuesday, October 30, 2012

  Actual Average (KLWV) Record (KLWV)
Temperature  
Mean Temperature 46 °F 53 °F  
Max Temperature 51 °F 64 °F 79 °F (2004)
Min Temperature 41 °F 42 °F 30 °F (2005)
Degree Days  
Heating Degree Days 19 12  
Month to date heating degree days 245  
Since 1 July heating degree days 284  
Cooling Degree Days 0 0  
Month to date cooling degree days 31  
Year to date cooling degree days 1385  
Moisture  
Dew Point 29 °F    
Average Humidity 53    
Maximum Humidity 65    
Minimum Humidity 38    
Precipitation  
Precipitation 0.00 in 0.07 in 0.54 in (2013)
Month to date precipitation 3.91  
Year to date precipitation 36.45  
Sea Level Pressure  
Sea Level Pressure 29.84 in    
Wind  
Wind Speed 15 mph (NW)    
Max Wind Speed 23 mph    
Max Gust Speed 30 mph    
Visibility 10 miles    
Events      
T = Trace of Precipitation, MM = Missing Value Source: NWS Daily Summary

Daily Weather History Graph

Daily Weather History Graph

Search for Another Location

Airport or City:

Trip Planner

Search our weather history database for the weather conditions in past years. The results will help you decide how hot, cold, wet, or windy it might be!

Date:

Astronomy

Oct. 30, 2012 Rise Set
Actual Time 7:15 AM CDT 5:52 PM CDT
Civil Twilight 6:48 AM CDT 6:19 PM CDT
Nautical Twilight 6:17 AM CDT 6:51 PM CDT
Astronomical Twilight 5:46 AM CDT 7:22 PM CDT
Moon 6:22 PM CDT (10/30) 8:01 AM CDT (10/30)
Length of Visible Light 11h 31m
Length of Day
10h 36m
Full, 99% of the Moon is Illuminated
Oct 30
Full
Nov 6
Last Quarter
Nov 13
New
Nov 20
First Quarter
Nov 28
Full

Hourly Weather History & Observations

Time (CDT) Temp. Windchill Dew Point Humidity Pressure Visibility Wind Dir Wind Speed Gust Speed Precip Events Conditions
12:15 AM 42.8 °F 36.2 °F 30.2 °F 61% 29.99 in 10.0 mi NNW 12.7 mph - N/A   Clear
12:35 AM 42.8 °F 36.2 °F 30.2 °F 61% 29.98 in 10.0 mi NW 12.7 mph - N/A   Clear
12:55 AM 42.8 °F 35.1 °F 30.2 °F 61% 29.97 in 10.0 mi NW 16.1 mph 19.6 mph N/A   Clear
1:15 AM 42.8 °F 35.8 °F 30.2 °F 61% 29.96 in 10.0 mi NW 13.8 mph 19.6 mph N/A   Clear
1:35 AM 42.8 °F 36.2 °F 30.2 °F 61% 29.95 in 10.0 mi NW 12.7 mph - N/A   Clear
1:55 AM 42.8 °F 35.8 °F 30.2 °F 61% 29.94 in 10.0 mi NW 13.8 mph 21.9 mph N/A   Clear
2:35 AM 41.0 °F 33.1 °F 30.2 °F 65% 29.93 in 10.0 mi NW 15.0 mph - N/A   Clear
2:55 AM 41.0 °F 33.5 °F 28.4 °F 61% 29.93 in 10.0 mi NW 13.8 mph - N/A   Clear
3:15 AM 41.0 °F 33.5 °F 28.4 °F 61% 29.91 in 10.0 mi NW 13.8 mph - N/A   Clear
3:55 AM 41.0 °F 32.8 °F 30.2 °F 65% 29.90 in 10.0 mi NW 16.1 mph 21.9 mph N/A   Clear
4:15 AM 42.8 °F 35.8 °F 28.4 °F 57% 29.89 in 10.0 mi NW 13.8 mph 23.0 mph N/A   Clear
4:35 AM 42.8 °F 35.8 °F 30.2 °F 61% 29.88 in 10.0 mi NW 13.8 mph 18.4 mph N/A   Clear
4:55 AM 41.0 °F 33.1 °F 30.2 °F 65% 29.88 in 10.0 mi NW 15.0 mph 20.7 mph N/A   Clear
5:15 AM 41.0 °F 32.2 °F 30.2 °F 65% 29.87 in 10.0 mi NNW 18.4 mph 24.2 mph N/A   Clear
5:35 AM 41.0 °F 32.2 °F 28.4 °F 61% 29.87 in 10.0 mi NW 18.4 mph 24.2 mph N/A   Clear
5:55 AM 41.0 °F 32.5 °F 28.4 °F 61% 29.86 in 10.0 mi NW 17.3 mph 25.3 mph N/A   Clear
6:15 AM 41.0 °F 31.9 °F 28.4 °F 61% 29.86 in 10.0 mi NW 19.6 mph 28.8 mph N/A   Clear
6:35 AM 41.0 °F 33.1 °F 28.4 °F 61% 29.86 in 10.0 mi NW 15.0 mph 24.2 mph N/A   Clear
6:55 AM 41.0 °F 32.5 °F 28.4 °F 61% 29.85 in 10.0 mi NW 17.3 mph 26.5 mph N/A   Clear
7:15 AM 41.0 °F 32.2 °F 28.4 °F 61% 29.84 in 10.0 mi NW 18.4 mph 26.5 mph N/A   Clear
7:35 AM 41.0 °F 32.5 °F 30.2 °F 65% 29.84 in 10.0 mi NW 17.3 mph - N/A   Clear
7:55 AM 41.0 °F 32.8 °F 28.4 °F 61% 29.84 in 10.0 mi NW 16.1 mph 21.9 mph N/A   Clear
8:15 AM 41.0 °F 31.9 °F 28.4 °F 61% 29.84 in 10.0 mi NW 19.6 mph 23.0 mph N/A   Clear
8:35 AM 41.0 °F 32.2 °F 28.4 °F 61% 29.84 in 10.0 mi NW 18.4 mph 27.6 mph N/A   Clear
8:55 AM 41.0 °F 32.5 °F 28.4 °F 61% 29.84 in 10.0 mi NW 17.3 mph 26.5 mph N/A   Clear
9:15 AM 41.0 °F 32.5 °F 28.4 °F 61% 29.84 in 10.0 mi NW 17.3 mph 27.6 mph N/A   Clear
9:35 AM 42.8 °F 34.0 °F 30.2 °F 61% 29.83 in 10.0 mi NW 20.7 mph 26.5 mph N/A   Clear
9:55 AM 42.8 °F 34.5 °F 30.2 °F 61% 29.83 in 10.0 mi NW 18.4 mph 26.5 mph N/A   Clear
10:15 AM 42.8 °F 33.8 °F 30.2 °F 61% 29.83 in 10.0 mi NNW 21.9 mph 29.9 mph N/A   Clear
10:35 AM 42.8 °F 34.3 °F 30.2 °F 61% 29.83 in 10.0 mi NNW 19.6 mph 29.9 mph N/A   Clear
10:55 AM 44.6 °F 37.2 °F 30.2 °F 57% 29.83 in 10.0 mi NW 17.3 mph 24.2 mph N/A   Clear
11:15 AM 44.6 °F 36.4 °F 30.2 °F 57% 29.82 in 10.0 mi NNW 20.7 mph 28.8 mph N/A   Clear
11:35 AM 44.6 °F 36.4 °F 30.2 °F 57% 29.82 in 10.0 mi NW 20.7 mph 26.5 mph N/A   Clear
11:55 AM 44.6 °F 36.1 °F 28.4 °F 53% 29.82 in 10.0 mi NW 21.9 mph 28.8 mph N/A   Clear
12:15 PM 44.6 °F 36.6 °F 28.4 °F 53% 29.81 in 10.0 mi NNW 19.6 mph 28.8 mph N/A   Clear
12:35 PM 46.4 °F 38.7 °F 28.4 °F 50% 29.81 in 10.0 mi NW 20.7 mph 28.8 mph N/A   Clear
12:55 PM 46.4 °F 38.5 °F 30.2 °F 53% 29.81 in 10.0 mi NW 21.9 mph 28.8 mph N/A   Clear
1:15 PM 46.4 °F 39.0 °F 28.4 °F 50% 29.80 in 10.0 mi NW 19.6 mph 29.9 mph N/A   Clear
1:35 PM 48.2 °F - 28.4 °F 46% 29.80 in 10.0 mi NNW 20.7 mph 28.8 mph N/A   Clear
1:55 PM 50.0 °F - 28.4 °F 43% 29.79 in 10.0 mi NW 18.4 mph 28.8 mph N/A   Clear
2:15 PM 50.0 °F - 28.4 °F 43% 29.79 in 10.0 mi NW 20.7 mph 29.9 mph N/A   Clear
2:35 PM 50.0 °F - 28.4 °F 43% 29.78 in 10.0 mi NW 23.0 mph 28.8 mph N/A   Clear
2:55 PM 51.8 °F - 28.4 °F 41% 29.78 in 10.0 mi NNW 20.7 mph 26.5 mph N/A   Clear
3:15 PM 51.8 °F - 28.4 °F 41% 29.78 in 10.0 mi NNW 20.7 mph 26.5 mph N/A   Scattered Clouds
3:35 PM 51.8 °F - 28.4 °F 41% 29.78 in 10.0 mi NW 13.8 mph 24.2 mph N/A   Scattered Clouds
3:55 PM 51.8 °F - 28.4 °F 41% 29.79 in 10.0 mi NW 17.3 mph 26.5 mph N/A   Scattered Clouds
4:15 PM 51.8 °F - 28.4 °F 41% 29.79 in 10.0 mi NW 18.4 mph 27.6 mph N/A   Scattered Clouds
4:35 PM 51.8 °F - 26.6 °F 38% 29.79 in 10.0 mi NW 18.4 mph 25.3 mph N/A   Clear
4:55 PM 51.8 °F - 28.4 °F 41% 29.79 in 10.0 mi NW 13.8 mph 27.6 mph N/A   Mostly Cloudy
5:15 PM 51.8 °F - 26.6 °F 38% 29.80 in 10.0 mi NW 13.8 mph - N/A   Overcast
5:35 PM 51.8 °F - 26.6 °F 38% 29.80 in 10.0 mi NW 17.3 mph - N/A   Overcast
5:55 PM 50.0 °F - 26.6 °F 40% 29.80 in 10.0 mi NW 16.1 mph - N/A   Overcast
6:15 PM 50.0 °F - 26.6 °F 40% 29.81 in 10.0 mi NW 11.5 mph - N/A   Overcast
6:35 PM 50.0 °F - 26.6 °F 40% 29.81 in 10.0 mi NW 15.0 mph 19.6 mph N/A   Overcast
6:55 PM 50.0 °F - 28.4 °F 43% 29.82 in 10.0 mi NNW 12.7 mph 18.4 mph N/A   Overcast
7:15 PM 50.0 °F - 28.4 °F 43% 29.82 in 10.0 mi NNW 13.8 mph 17.3 mph N/A   Overcast
7:35 PM 50.0 °F - 28.4 °F 43% 29.83 in 10.0 mi NNW 13.8 mph 17.3 mph N/A   Overcast
7:55 PM 48.2 °F - 28.4 °F 46% 29.83 in 10.0 mi NNW 10.4 mph - N/A   Mostly Cloudy
8:15 PM 46.4 °F 41.5 °F 28.4 °F 50% 29.83 in 10.0 mi NW 10.4 mph - N/A   Scattered Clouds
8:35 PM 46.4 °F 42.4 °F 28.4 °F 50% 29.83 in 10.0 mi NW 8.1 mph - N/A   Clear
8:55 PM 46.4 °F 41.1 °F 28.4 °F 50% 29.84 in 10.0 mi NW 11.5 mph - N/A   Clear
9:15 PM 46.4 °F 42.4 °F 28.4 °F 50% 29.84 in 10.0 mi NW 8.1 mph - N/A   Scattered Clouds
9:35 PM 44.6 °F 39.2 °F 28.4 °F 53% 29.84 in 10.0 mi NW 10.4 mph - N/A   Mostly Cloudy
9:55 PM 44.6 °F 38.8 °F 28.4 °F 53% 29.84 in 10.0 mi NNW 11.5 mph - N/A   Mostly Cloudy
10:15 PM 44.6 °F 39.7 °F 26.6 °F 49% 29.84 in 10.0 mi NNW 9.2 mph - N/A   Scattered Clouds
10:35 PM 44.6 °F 39.7 °F 28.4 °F 53% 29.84 in 10.0 mi NW 9.2 mph - N/A   Clear
10:55 PM 44.6 °F 40.2 °F 28.4 °F 53% 29.83 in 10.0 mi NW 8.1 mph - N/A   Clear
11:15 PM 42.8 °F 38.0 °F 28.4 °F 57% 29.83 in 10.0 mi WNW 8.1 mph - N/A   Clear
11:35 PM 42.8 °F 38.6 °F 28.4 °F 57% 29.83 in 10.0 mi WNW 6.9 mph - N/A   Clear
11:55 PM 41.0 °F 35.8 °F 28.4 °F 61% 29.83 in 10.0 mi WNW 8.1 mph - N/A   Clear